Time;durP1;ratioP1;P1;durP2;ratioP2;P2;SDS_P1;SDS_P2;PMS_P1;PMS_P2;Temp;Humidity;BMP_temperature;BMP_pressure;BME280_temperature;BME280_humidity;BME280_pressure;Samples;Min_cycle;Max_cycle;Signal;HPM_P1;HPM_P2
2022/08/06 00:01:48;;;;;;;10.07;6.30;;;12.90;99.90;;;;;;4983837;28;20046;-88
2022/08/06 00:04:14;;;;;;;9.98;6.53;;;12.90;99.90;;;;;;4967392;28;20116;-87
2022/08/06 00:06:40;;;;;;;8.70;6.05;;;12.90;99.90;;;;;;4992971;28;20442;-88
2022/08/06 00:09:05;;;;;;;9.80;6.43;;;12.90;99.90;;;;;;4991966;28;20053;-88
2022/08/06 00:11:31;;;;;;;9.57;5.90;;;12.90;99.90;;;;;;4993032;28;20077;-87
2022/08/06 00:13:57;;;;;;;10.82;5.70;;;12.90;99.90;;;;;;4981454;28;20446;-88
2022/08/06 00:16:22;;;;;;;10.90;6.00;;;12.90;99.90;;;;;;4990235;28;20026;-88
2022/08/06 00:18:48;;;;;;;11.23;6.30;;;12.90;99.90;;;;;;4987665;28;20074;-88
2022/08/06 00:21:13;;;;;;;13.00;7.13;;;12.90;99.90;;;;;;4976748;28;20046;-89
2022/08/06 00:23:39;;;;;;;10.32;6.88;;;12.90;99.90;;;;;;4975777;28;20121;-88
2022/08/06 00:26:05;;;;;;;10.55;6.88;;;12.80;99.90;;;;;;4972698;28;20594;-89
2022/08/06 00:28:30;;;;;;;12.98;6.60;;;12.80;99.90;;;;;;4984933;28;20069;-87
2022/08/06 00:30:56;;;;;;;9.93;6.53;;;12.80;99.90;;;;;;4983663;28;20057;-89
2022/08/06 00:33:21;;;;;;;11.32;6.90;;;12.80;99.90;;;;;;4980933;28;20050;-88
2022/08/06 00:35:47;;;;;;;11.88;6.65;;;12.70;99.90;;;;;;4982582;28;20047;-88
2022/08/06 00:38:13;;;;;;;9.57;6.60;;;12.60;99.90;;;;;;4984564;28;20121;-88
2022/08/06 00:40:38;;;;;;;10.48;6.50;;;12.70;99.90;;;;;;4964456;28;20088;-87
2022/08/06 00:43:05;;;;;;;9.70;6.30;;;12.60;99.90;;;;;;4966184;28;20621;-88
2022/08/06 00:45:31;;;;;;;11.50;6.93;;;12.60;99.90;;;;;;4984606;28;20195;-88
2022/08/06 00:47:58;;;;;;;9.70;6.50;;;12.60;99.90;;;;;;4985276;28;20058;-88
2022/08/06 00:50:24;;;;;;;11.93;6.43;;;12.60;99.90;;;;;;4983629;28;20054;-89
2022/08/06 00:52:49;;;;;;;10.38;6.43;;;12.60;99.90;;;;;;4983644;28;20045;-86
2022/08/06 00:55:15;;;;;;;9.85;6.40;;;12.50;99.90;;;;;;4981752;28;20041;-86
2022/08/06 00:57:40;;;;;;;9.10;5.95;;;12.50;99.90;;;;;;4990546;28;20129;-87
2022/08/06 01:00:07;;;;;;;8.68;5.95;;;12.50;99.90;;;;;;4968029;28;20431;-87
2022/08/06 01:02:33;;;;;;;11.35;6.32;;;12.50;99.90;;;;;;4992401;28;20058;-87
2022/08/06 01:04:59;;;;;;;11.00;6.47;;;12.40;99.90;;;;;;4971436;28;20043;-87
2022/08/06 01:07:24;;;;;;;10.32;6.35;;;12.40;99.90;;;;;;4990252;28;20500;-86
2022/08/06 01:09:50;;;;;;;9.63;6.00;;;12.40;99.90;;;;;;4989176;28;20042;-87
2022/08/06 01:12:16;;;;;;;10.00;6.72;;;12.30;99.90;;;;;;4988042;28;20042;-87
2022/08/06 01:14:42;;;;;;;11.65;7.07;;;12.30;99.90;;;;;;4988215;28;20054;-86
2022/08/06 01:17:23;;;;;;;11.10;6.78;;;12.30;99.90;;;;;;4989694;28;20039;-86
2022/08/06 01:20:12;;;;;;;9.80;6.32;;;12.20;99.90;;;;;;4986409;28;20042;-87
2022/08/06 01:23:01;;;;;;;9.90;6.43;;;12.10;99.90;;;;;;4989604;28;20068;-87
2022/08/06 01:26:06;;;;;;;10.30;6.50;;;12.10;99.90;;;;;;4980188;28;20125;-87
2022/08/06 01:28:43;;;;;;;9.77;5.78;;;12.10;99.90;;;;;;4963018;28;21336;-87
2022/08/06 01:31:13;;;;;;;9.93;6.05;;;12.00;99.90;;;;;;4961990;28;20058;-86
2022/08/06 01:33:51;;;;;;;8.95;5.45;;;12.00;99.90;;;;;;4989809;28;20467;-87
2022/08/06 01:36:22;;;;;;;10.50;5.70;;;12.00;99.90;;;;;;4987996;28;20072;-86
2022/08/06 01:38:52;;;;;;;9.77;5.95;;;12.00;99.90;;;;;;4990732;28;20038;-86
2022/08/06 01:41:38;;;;;;;8.65;5.55;;;12.00;99.90;;;;;;4988366;28;20046;-86
2022/08/06 01:44:07;;;;;;;9.63;5.40;;;12.00;99.90;;;;;;4986318;28;20050;-88
2022/08/06 01:46:36;;;;;;;8.68;5.32;;;12.00;99.90;;;;;;4989325;28;20184;-88
2022/08/06 01:49:03;;;;;;;8.05;5.00;;;12.00;99.90;;;;;;4985166;28;20488;-87
2022/08/06 01:51:31;;;;;;;8.60;5.25;;;11.90;99.90;;;;;;4986402;28;20100;-87
2022/08/06 01:53:57;;;;;;;9.15;5.38;;;11.80;99.90;;;;;;4990244;28;20548;-87
2022/08/06 01:56:23;;;;;;;9.25;4.90;;;11.90;99.90;;;;;;4990101;28;20206;-87
2022/08/06 01:58:52;;;;;;;8.82;5.47;;;11.90;99.90;;;;;;4990059;28;20104;-86
2022/08/06 02:01:19;;;;;;;8.25;4.72;;;11.80;99.90;;;;;;4989864;28;20160;-87
2022/08/06 02:03:49;;;;;;;8.55;4.88;;;11.80;99.90;;;;;;4969912;28;20058;-86
2022/08/06 02:06:18;;;;;;;7.67;4.83;;;11.90;99.90;;;;;;4987268;28;20479;-86
2022/08/06 02:08:47;;;;;;;8.57;4.50;;;11.80;99.90;;;;;;4980144;28;20305;-87
2022/08/06 02:11:13;;;;;;;7.88;4.72;;;11.80;99.90;;;;;;4974234;28;20041;-87
2022/08/06 02:13:41;;;;;;;7.75;4.75;;;11.80;99.90;;;;;;4971481;28;20042;-87
2022/08/06 02:16:09;;;;;;;9.18;4.30;;;11.80;99.90;;;;;;4971566;28;20050;-87
2022/08/06 02:18:39;;;;;;;7.43;4.32;;;11.80;99.90;;;;;;4988159;28;20046;-87
2022/08/06 02:21:08;;;;;;;7.07;4.30;;;11.70;99.90;;;;;;4988120;28;20116;-87
2022/08/06 02:23:35;;;;;;;7.50;4.00;;;11.70;99.90;;;;;;4969191;28;20045;-87
2022/08/06 02:26:02;;;;;;;9.20;4.25;;;11.60;99.90;;;;;;5003700;28;20053;-87
2022/08/06 02:28:31;;;;;;;8.85;3.90;;;11.70;99.90;;;;;;4971311;28;20439;-87
2022/08/06 02:30:58;;;;;;;8.23;4.28;;;11.70;99.90;;;;;;4971736;28;20139;-86
2022/08/06 02:33:25;;;;;;;7.00;3.78;;;11.70;99.90;;;;;;4972839;28;20439;-86
2022/08/06 02:36:09;;;;;;;6.43;3.97;;;11.60;99.90;;;;;;4980011;28;20073;-87
2022/08/06 02:39:05;;;;;;;7.93;3.97;;;11.60;99.90;;;;;;4987452;28;20042;-87
2022/08/06 02:41:53;;;;;;;8.25;4.65;;;11.60;99.90;;;;;;4988165;28;20046;-87
2022/08/06 02:44:34;;;;;;;7.47;4.30;;;11.50;99.90;;;;;;4990759;28;20054;-88
2022/08/06 02:47:15;;;;;;;7.72;4.32;;;11.50;99.90;;;;;;4971884;28;20046;-87
2022/08/06 02:49:45;;;;;;;8.32;4.13;;;11.50;99.90;;;;;;4988587;28;20061;-86
2022/08/06 02:52:18;;;;;;;12.15;4.70;;;11.40;99.90;;;;;;4985088;28;20049;-87
2022/08/06 02:54:52;;;;;;;8.07;4.32;;;11.40;99.90;;;;;;4985769;28;20039;-86
2022/08/06 02:57:27;;;;;;;8.00;4.40;;;11.30;99.90;;;;;;4975663;28;20121;-87
2022/08/06 03:00:00;;;;;;;6.55;4.32;;;11.30;99.90;;;;;;4979079;28;20100;-86
2022/08/06 03:02:27;;;;;;;8.25;4.40;;;11.30;99.90;;;;;;4984508;28;20038;-86
2022/08/06 03:04:55;;;;;;;7.30;4.32;;;11.20;99.90;;;;;;4987120;28;20062;-86
2022/08/06 03:07:26;;;;;;;8.13;4.47;;;11.20;99.90;;;;;;4991203;28;20030;-87
2022/08/06 03:09:52;;;;;;;7.00;4.60;;;11.10;99.90;;;;;;4966205;28;20043;-86
2022/08/06 03:12:20;;;;;;;8.60;4.53;;;11.10;99.90;;;;;;4987485;28;20045;-86
2022/08/06 03:14:48;;;;;;;8.35;4.63;;;11.10;99.90;;;;;;4986118;28;20039;-86
2022/08/06 03:17:15;;;;;;;7.65;4.45;;;11.10;99.90;;;;;;4985692;28;20050;-86
2022/08/06 03:19:44;;;;;;;7.97;4.47;;;11.10;99.90;;;;;;4990906;28;20046;-86
2022/08/06 03:22:11;;;;;;;8.70;4.47;;;11.10;99.90;;;;;;4982252;28;20040;-87
2022/08/06 03:24:39;;;;;;;7.53;4.63;;;11.10;99.90;;;;;;4960254;28;20107;-86
2022/08/06 03:27:06;;;;;;;7.90;4.72;;;11.00;99.90;;;;;;4983036;28;20121;-86
2022/08/06 03:29:33;;;;;;;7.85;5.10;;;11.00;99.90;;;;;;4983787;28;20174;-87
2022/08/06 03:32:00;;;;;;;7.55;5.03;;;11.00;99.90;;;;;;4986231;28;20396;-86
2022/08/06 03:34:30;;;;;;;7.97;4.80;;;11.00;99.90;;;;;;4980434;28;20124;-87
2022/08/06 03:36:57;;;;;;;8.45;4.68;;;10.90;99.90;;;;;;4980442;28;20140;-86
2022/08/06 03:39:25;;;;;;;8.05;4.65;;;10.90;99.90;;;;;;4990474;28;20065;-86
2022/08/06 03:41:52;;;;;;;7.95;4.32;;;10.90;99.90;;;;;;4983641;28;20035;-87
2022/08/06 03:44:19;;;;;;;6.80;4.28;;;10.80;99.90;;;;;;4983094;28;20047;-87
2022/08/06 03:46:51;;;;;;;6.22;3.78;;;10.80;99.90;;;;;;4982450;28;20446;-86
2022/08/06 03:49:30;;;;;;;7.13;4.38;;;10.80;99.90;;;;;;4987715;28;20058;-86
2022/08/06 03:51:59;;;;;;;8.20;4.50;;;10.80;99.90;;;;;;4981159;28;20102;-87
2022/08/06 03:54:28;;;;;;;7.72;4.07;;;10.90;99.90;;;;;;4985320;28;20113;-87
2022/08/06 03:56:59;;;;;;;8.45;4.30;;;10.90;99.90;;;;;;4982604;28;20042;-87
2022/08/06 03:59:27;;;;;;;7.70;4.32;;;10.90;99.90;;;;;;4985998;28;20792;-86
2022/08/06 04:01:56;;;;;;;7.68;4.00;;;10.90;99.90;;;;;;4981402;28;20049;-86
2022/08/06 04:04:24;;;;;;;7.95;4.22;;;11.00;99.90;;;;;;4979852;28;20078;-87
2022/08/06 04:06:50;;;;;;;10.80;6.28;;;11.00;99.90;;;;;;4983639;28;20050;-87
2022/08/06 04:09:17;;;;;;;8.63;6.35;;;10.90;99.90;;;;;;4963910;28;20088;-88
2022/08/06 04:11:44;;;;;;;8.48;5.20;;;10.90;99.90;;;;;;4983326;28;20496;-88
2022/08/06 04:14:10;;;;;;;7.35;3.90;;;10.90;99.90;;;;;;4983717;28;20058;-88
2022/08/06 04:16:37;;;;;;;7.03;4.55;;;10.90;99.90;;;;;;4973159;28;20062;-87
2022/08/06 04:19:05;;;;;;;7.13;4.07;;;10.90;99.90;;;;;;4989442;28;20046;-87
2022/08/06 04:21:30;;;;;;;6.68;4.22;;;11.00;99.90;;;;;;4969462;28;20038;-88
2022/08/06 04:23:56;;;;;;;7.40;4.10;;;11.00;99.90;;;;;;4964465;28;20043;-88
2022/08/06 04:26:24;;;;;;;8.68;4.30;;;11.10;99.90;;;;;;4987049;28;20038;-88
2022/08/06 04:28:53;;;;;;;8.15;4.38;;;11.10;99.90;;;;;;4977374;28;20467;-88
2022/08/06 04:31:21;;;;;;;7.72;4.10;;;11.10;99.90;;;;;;4987254;28;20086;-88
2022/08/06 04:33:48;;;;;;;7.15;4.40;;;11.10;99.90;;;;;;4978898;28;20043;-87
2022/08/06 04:36:15;;;;;;;6.97;4.10;;;11.20;99.90;;;;;;4970057;28;20112;-88
2022/08/06 04:38:41;;;;;;;7.25;4.30;;;11.20;99.90;;;;;;4984351;28;20047;-87
2022/08/06 04:41:07;;;;;;;7.22;4.35;;;11.20;99.90;;;;;;4977226;28;20082;-88
2022/08/06 04:43:33;;;;;;;7.93;4.40;;;11.10;99.90;;;;;;4989370;28;20074;-87
2022/08/06 04:46:00;;;;;;;6.35;3.90;;;11.20;99.90;;;;;;4983741;28;20053;-87
2022/08/06 04:48:26;;;;;;;6.80;3.80;;;11.20;99.90;;;;;;4989565;28;20109;-86
2022/08/06 04:50:53;;;;;;;6.80;3.90;;;11.10;99.90;;;;;;4981472;28;20475;-86
2022/08/06 04:53:19;;;;;;;6.82;4.00;;;11.10;99.90;;;;;;4990542;28;20073;-87
2022/08/06 04:55:46;;;;;;;7.55;4.00;;;11.20;99.90;;;;;;4982907;28;20411;-86
2022/08/06 04:58:14;;;;;;;6.93;4.32;;;11.20;99.90;;;;;;4983952;28;20392;-86
2022/08/06 05:00:47;;;;;;;6.97;4.25;;;11.20;99.90;;;;;;4963115;28;20039;-86
2022/08/06 05:03:14;;;;;;;7.63;4.60;;;11.20;99.90;;;;;;4986209;28;20460;-86
2022/08/06 05:05:46;;;;;;;8.10;4.25;;;11.30;99.90;;;;;;4973060;28;20125;-86
2022/08/06 05:08:13;;;;;;;7.90;4.85;;;11.40;99.90;;;;;;4982621;28;20043;-86
2022/08/06 05:10:50;;;;;;;7.88;4.78;;;11.30;99.90;;;;;;4983203;28;20049;-87
2022/08/06 05:13:20;;;;;;;7.95;4.15;;;11.40;99.90;;;;;;4960137;28;20072;-87
2022/08/06 05:15:51;;;;;;;7.63;5.00;;;11.50;99.90;;;;;;4986243;28;20541;-86
2022/08/06 05:18:33;;;;;;;7.93;4.63;;;11.50;99.90;;;;;;4979966;28;20109;-86
2022/08/06 05:21:01;;;;;;;7.88;4.50;;;11.60;99.90;;;;;;4982537;28;20114;-88
2022/08/06 05:23:34;;;;;;;8.10;4.30;;;11.60;99.90;;;;;;4980374;28;20043;-88
2022/08/06 05:26:00;;;;;;;7.90;4.13;;;11.70;99.90;;;;;;4964889;28;20053;-87
2022/08/06 05:28:25;;;;;;;8.20;4.10;;;11.80;99.90;;;;;;4971619;28;20061;-87
2022/08/06 05:30:52;;;;;;;8.07;4.47;;;11.90;99.90;;;;;;4985143;28;20047;-88
2022/08/06 05:33:23;;;;;;;7.53;4.25;;;12.10;99.90;;;;;;4989096;28;20522;-87
2022/08/06 05:35:49;;;;;;;6.22;4.18;;;12.10;99.90;;;;;;4985536;28;20049;-87
2022/08/06 05:38:15;;;;;;;7.47;4.38;;;12.20;99.90;;;;;;4979668;28;20475;-87
2022/08/06 05:40:40;;;;;;;7.90;4.40;;;12.30;99.90;;;;;;4987923;28;20089;-87
2022/08/06 05:43:06;;;;;;;7.20;4.25;;;12.40;99.90;;;;;;4974405;28;20050;-83
2022/08/06 05:45:32;;;;;;;8.90;4.72;;;12.50;99.90;;;;;;4982395;28;20038;-83
2022/08/06 05:48:00;;;;;;;7.40;4.53;;;12.60;99.90;;;;;;4981384;28;20391;-82
2022/08/06 05:50:32;;;;;;;8.07;4.38;;;12.80;99.90;;;;;;4982846;28;20051;-82
2022/08/06 05:53:05;;;;;;;7.10;4.05;;;12.90;99.90;;;;;;4986666;28;20368;-82
2022/08/06 05:55:44;;;;;;;7.53;3.97;;;13.00;99.90;;;;;;4979782;28;20129;-82
2022/08/06 05:58:14;;;;;;;8.07;3.80;;;13.10;99.90;;;;;;4990028;28;20419;-83
2022/08/06 06:00:41;;;;;;;6.80;3.65;;;13.30;99.90;;;;;;4985600;28;20558;-82
2022/08/06 06:03:09;;;;;;;7.60;3.40;;;13.30;99.90;;;;;;4979443;28;20042;-82
2022/08/06 06:05:36;;;;;;;5.97;3.10;;;13.50;99.90;;;;;;4988710;28;20189;-82
2022/08/06 06:08:02;;;;;;;5.50;2.60;;;13.60;99.90;;;;;;4987554;28;20640;-82
2022/08/06 06:10:33;;;;;;;6.13;3.17;;;13.80;99.90;;;;;;4991297;28;20050;-83
2022/08/06 06:12:59;;;;;;;;;;;13.90;99.90;;;;;;4992711;28;20045;-82
2022/08/06 06:15:25;;;;;;;5.97;3.00;;;14.00;99.90;;;;;;4986153;28;19929;-83
2022/08/06 06:18:09;;;;;;;6.20;3.05;;;14.10;99.90;;;;;;4985678;28;20047;-82
2022/08/06 06:20:58;;;;;;;7.07;3.53;;;14.20;99.90;;;;;;4988590;28;20053;-82
2022/08/06 06:23:26;;;;;;;6.32;3.13;;;14.30;99.90;;;;;;4989203;28;20107;-83
2022/08/06 06:26:19;;;;;;;6.07;3.00;;;14.40;99.90;;;;;;4987806;28;20376;-82
2022/08/06 06:29:03;;;;;;;6.25;3.60;;;14.50;99.90;;;;;;4984712;28;20055;-82
2022/08/06 06:31:49;;;;;;;7.07;3.35;;;14.70;99.90;;;;;;4973293;28;20047;-82
2022/08/06 06:34:24;;;;;;;8.95;4.15;;;14.80;99.90;;;;;;4988866;28;20052;-82
2022/08/06 06:37:07;;;;;;;8.60;3.83;;;14.90;99.90;;;;;;4981177;28;20133;-82
2022/08/06 06:39:36;;;;;;;6.72;3.88;;;15.00;99.90;;;;;;4988556;28;20086;-82
2022/08/06 06:42:09;;;;;;;6.97;4.00;;;15.10;99.90;;;;;;4966513;28;20053;-82
2022/08/06 06:45:04;;;;;;;8.02;4.57;;;15.20;99.90;;;;;;4982556;28;20054;-82
2022/08/06 06:47:51;;;;;;;7.82;4.78;;;15.30;99.90;;;;;;4984225;28;20042;-82
2022/08/06 06:50:22;;;;;;;6.28;3.67;;;15.40;99.90;;;;;;4987802;28;20050;-82
2022/08/06 06:52:50;;;;;;;7.88;3.70;;;15.50;99.90;;;;;;4985945;28;20038;-82
2022/08/06 06:55:16;;;;;;;6.95;3.30;;;15.70;99.90;;;;;;4988106;28;20050;-82
2022/08/06 06:57:47;;;;;;;7.25;3.60;;;15.80;99.90;;;;;;4968878;28;20069;-82
2022/08/06 07:00:14;;;;;;;7.32;3.78;;;15.90;99.90;;;;;;4994534;28;20056;-82
2022/08/06 07:02:41;;;;;;;7.20;3.80;;;16.00;99.90;;;;;;4989125;28;20034;-82
2022/08/06 07:05:09;;;;;;;7.50;3.53;;;16.00;99.90;;;;;;4983976;28;20070;-82
2022/08/06 07:07:39;;;;;;;6.68;3.33;;;16.10;99.90;;;;;;4988162;28;20407;-83
2022/08/06 07:10:10;;;;;;;7.00;3.35;;;16.20;99.90;;;;;;4990245;28;20507;-83
2022/08/06 07:12:36;;;;;;;6.97;3.30;;;16.30;99.90;;;;;;4989509;28;20124;-83
2022/08/06 07:15:06;;;;;;;6.80;2.90;;;16.30;99.90;;;;;;4988568;28;20842;-84
2022/08/06 07:17:34;;;;;;;5.90;2.80;;;16.40;99.90;;;;;;4983610;28;20491;-84
2022/08/06 07:20:03;;;;;;;7.53;3.03;;;16.60;99.90;;;;;;4978344;28;20045;-83
2022/08/06 07:22:29;;;;;;;4.50;2.20;;;16.60;99.90;;;;;;4982137;28;20078;-83
2022/08/06 07:24:59;;;;;;;5.78;1.80;;;16.70;99.90;;;;;;4988799;28;20112;-83
2022/08/06 07:27:34;;;;;;;4.80;2.00;;;16.80;99.90;;;;;;4978573;28;20129;-83
2022/08/06 07:30:00;;;;;;;4.80;1.70;;;16.90;99.90;;;;;;4987303;28;20169;-83
2022/08/06 07:32:29;;;;;;;4.05;1.70;;;17.00;99.90;;;;;;4964602;28;20515;-83
2022/08/06 07:34:55;;;;;;;4.07;1.60;;;17.00;99.90;;;;;;4981241;28;20042;-83
2022/08/06 07:37:22;;;;;;;3.72;1.63;;;17.10;99.90;;;;;;4971750;28;20562;-83
2022/08/06 07:39:52;;;;;;;4.85;1.70;;;17.20;99.90;;;;;;4989018;28;20411;-84
2022/08/06 07:42:19;;;;;;;5.55;1.67;;;17.20;99.90;;;;;;4982010;28;20034;-84
2022/08/06 07:44:49;;;;;;;6.03;1.50;;;17.30;99.90;;;;;;4988341;28;20054;-86
2022/08/06 07:47:22;;;;;;;2.92;1.10;;;17.30;99.90;;;;;;4981479;28;20120;-87
2022/08/06 07:49:57;;;;;;;4.97;1.40;;;17.30;99.90;;;;;;4988126;28;20136;-86
2022/08/06 07:52:25;;;;;;;4.00;1.20;;;17.40;99.90;;;;;;4988183;28;20050;-86
2022/08/06 07:54:53;;;;;;;4.10;1.20;;;17.40;99.90;;;;;;4972367;28;20176;-84
2022/08/06 07:57:20;;;;;;;3.40;1.10;;;17.50;99.90;;;;;;4986159;28;20372;-86
2022/08/06 07:59:47;;;;;;;4.03;1.10;;;17.60;99.90;;;;;;4985409;28;20042;-85
2022/08/06 08:02:13;;;;;;;5.68;1.08;;;17.70;99.90;;;;;;4988175;28;20034;-89
2022/08/06 08:07:24;;;;;;;2.35;0.80;;;17.80;99.90;;;;;;4985523;28;20074;-85
2022/08/06 08:09:51;;;;;;;4.32;1.15;;;17.90;99.90;;;;;;4987828;28;20144;-86
2022/08/06 08:12:19;;;;;;;4.03;1.10;;;18.00;99.90;;;;;;4983668;28;20042;-86
2022/08/06 08:14:46;;;;;;;4.45;0.95;;;18.10;99.90;;;;;;4994356;28;20111;-85
2022/08/06 08:17:12;;;;;;;3.58;1.00;;;18.20;99.90;;;;;;4968656;28;20050;-87
2022/08/06 08:19:38;;;;;;;3.92;1.10;;;18.20;99.90;;;;;;4983900;28;20061;-86
2022/08/06 08:22:15;;;;;;;3.25;0.95;;;18.30;99.90;;;;;;4990515;28;20053;-85
2022/08/06 08:24:43;;;;;;;2.25;0.80;;;18.40;99.90;;;;;;4980694;28;20054;-86
2022/08/06 08:27:09;;;;;;;2.72;1.10;;;18.50;99.90;;;;;;4991771;28;20052;-86
2022/08/06 08:29:35;;;;;;;3.95;1.00;;;18.60;99.90;;;;;;4992406;28;20062;-85
2022/08/06 08:32:02;;;;;;;2.60;0.90;;;18.70;99.90;;;;;;4969899;28;20042;-84
2022/08/06 08:34:28;;;;;;;3.05;1.00;;;18.80;99.90;;;;;;4984450;28;20058;-85
2022/08/06 08:36:54;;;;;;;3.35;0.98;;;18.80;99.90;;;;;;4990583;28;20096;-86
2022/08/06 08:39:20;;;;;;;3.72;1.00;;;18.70;99.90;;;;;;4992474;28;20054;-84
2022/08/06 08:42:08;;;;;;;3.15;0.80;;;18.60;99.90;;;;;;4989459;28;20045;-85
2022/08/06 08:44:34;;;;;;;2.83;1.00;;;18.50;99.90;;;;;;4992670;28;20058;-85
2022/08/06 08:47:01;;;;;;;3.03;1.23;;;18.40;99.90;;;;;;4991328;28;20042;-85
2022/08/06 08:49:39;;;;;;;4.75;0.90;;;18.40;99.90;;;;;;4989379;28;20074;-86
2022/08/06 08:52:09;;;;;;;4.25;1.00;;;18.60;99.90;;;;;;4974693;28;20450;-84
2022/08/06 08:54:37;;;;;;;5.05;1.15;;;18.80;99.90;;;;;;4985024;28;20043;-86
2022/08/06 08:57:03;;;;;;;1.95;0.70;;;19.00;99.90;;;;;;4986803;28;20137;-87
2022/08/06 08:59:31;;;;;;;3.53;1.08;;;19.10;99.90;;;;;;4990576;28;20034;-86
2022/08/06 09:01:57;;;;;;;4.45;1.00;;;19.10;99.90;;;;;;4988718;28;20058;-88
2022/08/06 09:04:23;;;;;;;5.10;1.10;;;19.10;99.90;;;;;;4970400;28;20041;-85
2022/08/06 09:06:49;;;;;;;3.28;0.82;;;19.10;99.90;;;;;;4988519;28;20057;-86
2022/08/06 09:09:15;;;;;;;3.55;0.82;;;19.10;99.90;;;;;;4987023;28;20046;-84
2022/08/06 09:11:41;;;;;;;5.35;0.80;;;19.10;99.90;;;;;;4972990;28;20069;-86
2022/08/06 09:14:08;;;;;;;3.95;1.00;;;19.20;99.90;;;;;;4987582;28;20046;-86
2022/08/06 09:16:34;;;;;;;3.65;1.00;;;19.20;99.90;;;;;;4973003;28;20507;-88
2022/08/06 09:19:01;;;;;;;4.60;1.17;;;19.20;99.90;;;;;;4972939;28;20080;-85
2022/08/06 09:21:28;;;;;;;4.30;1.40;;;19.30;99.90;;;;;;4990768;28;20060;-84
2022/08/06 09:23:55;;;;;;;6.63;1.77;;;19.40;99.90;;;;;;4988873;28;20101;-85
2022/08/06 09:26:20;;;;;;;5.20;1.58;;;19.40;99.90;;;;;;4987463;28;20046;-83
2022/08/06 09:28:46;;;;;;;4.93;1.30;;;19.50;99.90;;;;;;4970686;28;20051;-84
2022/08/06 09:31:21;;;;;;;6.32;1.73;;;19.60;99.90;;;;;;4985941;28;20046;-84
2022/08/06 09:34:00;;;;;;;6.65;1.58;;;19.70;99.90;;;;;;4989333;28;20430;-85
2022/08/06 09:36:26;;;;;;;6.25;2.20;;;19.70;99.90;;;;;;4983682;28;20078;-85
2022/08/06 09:38:57;;;;;;;6.00;2.28;;;19.60;99.90;;;;;;4977650;28;20048;-86
2022/08/06 09:41:27;;;;;;;4.47;1.90;;;19.40;99.90;;;;;;4982002;28;20042;-87
2022/08/06 09:43:55;;;;;;;5.00;2.00;;;19.40;99.90;;;;;;4990179;28;20104;-87
2022/08/06 09:46:43;;;;;;;5.18;2.10;;;19.40;99.90;;;;;;4986954;28;20046;-86
2022/08/06 09:49:11;;;;;;;5.93;2.25;;;19.30;99.90;;;;;;4983959;28;20485;-86
2022/08/06 09:51:37;;;;;;;6.65;2.28;;;19.40;99.90;;;;;;4988318;28;20133;-87
2022/08/06 09:54:05;;;;;;;6.00;2.50;;;19.50;99.90;;;;;;4988386;28;20054;-86
2022/08/06 09:56:32;;;;;;;7.13;2.13;;;19.50;99.90;;;;;;4990614;28;20176;-87
2022/08/06 09:59:08;;;;;;;6.97;2.00;;;19.50;99.90;;;;;;4986193;28;20471;-88
2022/08/06 10:01:38;;;;;;;5.03;2.25;;;19.40;99.90;;;;;;4987311;28;20042;-89
2022/08/06 10:04:04;;;;;;;6.57;2.50;;;19.40;99.90;;;;;;4977690;28;20039;-87
2022/08/06 10:06:30;;;;;;;4.82;2.20;;;19.50;99.90;;;;;;4982171;28;20046;-88
2022/08/06 10:09:11;;;;;;;5.00;2.20;;;19.50;99.90;;;;;;4969903;28;20057;-86
2022/08/06 10:11:39;;;;;;;5.15;2.22;;;19.60;99.90;;;;;;4976897;28;20156;-86
2022/08/06 10:14:04;;;;;;;5.88;2.33;;;19.80;99.70;;;;;;4979078;28;20496;-86
2022/08/06 10:16:30;;;;;;;7.18;2.47;;;19.90;99.80;;;;;;4984545;28;20484;-87
2022/08/06 10:18:58;;;;;;;4.00;2.35;;;19.90;99.60;;;;;;4968311;28;20038;-85
2022/08/06 10:21:32;;;;;;;7.07;2.40;;;19.80;99.30;;;;;;4977732;28;20104;-85
2022/08/06 10:24:02;;;;;;;4.63;2.22;;;19.80;98.50;;;;;;4987806;28;20100;-85
2022/08/06 10:26:31;;;;;;;5.63;2.47;;;19.60;98.30;;;;;;4980217;28;20400;-86
2022/08/06 10:29:05;;;;;;;5.45;2.30;;;19.60;99.10;;;;;;4977877;28;20330;-85
2022/08/06 10:31:32;;;;;;;5.30;2.15;;;19.50;98.20;;;;;;4989622;28;20125;-84
2022/08/06 10:34:09;;;;;;;5.80;2.10;;;19.60;98.40;;;;;;4986963;28;20050;-86
2022/08/06 10:36:38;;;;;;;5.20;2.38;;;19.70;99.10;;;;;;4987428;28;20043;-85
2022/08/06 10:39:06;;;;;;;4.82;2.40;;;19.80;98.00;;;;;;4966234;28;20578;-85
2022/08/06 10:41:34;;;;;;;5.78;2.42;;;20.00;97.50;;;;;;4972721;28;20074;-84
2022/08/06 10:44:01;;;;;;;5.63;2.50;;;20.10;96.60;;;;;;4985343;28;20399;-85
2022/08/06 10:46:28;;;;;;;5.63;2.40;;;20.10;97.10;;;;;;4984763;28;20046;-85
2022/08/06 10:48:54;;;;;;;4.88;2.10;;;20.20;96.90;;;;;;4978732;28;20053;-86
2022/08/06 10:51:20;;;;;;;5.50;2.10;;;20.10;97.70;;;;;;4982365;28;20050;-87
2022/08/06 10:53:46;;;;;;;6.43;2.42;;;20.10;97.70;;;;;;4981290;28;20117;-84
2022/08/06 10:56:14;;;;;;;5.65;2.20;;;20.00;98.70;;;;;;4975629;28;20042;-88
2022/08/06 10:58:41;;;;;;;4.78;1.88;;;20.00;99.40;;;;;;4976717;28;20571;-87
2022/08/06 11:01:28;;;;;;;6.13;2.50;;;19.90;99.90;;;;;;4974576;28;20034;-85
2022/08/06 11:04:22;;;;;;;4.82;2.20;;;19.80;99.90;;;;;;4977611;28;20078;-88
2022/08/06 11:07:04;;;;;;;5.18;2.20;;;19.90;99.60;;;;;;4977756;28;20447;-86
2022/08/06 11:10:07;;;;;;;5.53;2.00;;;19.90;99.90;;;;;;4987150;28;20051;-86
2022/08/06 11:12:51;;;;;;;6.90;2.05;;;19.90;99.90;;;;;;4984362;28;20046;-85
2022/08/06 11:15:21;;;;;;;5.97;2.00;;;19.90;99.90;;;;;;4973929;28;20069;-84
2022/08/06 11:17:51;;;;;;;4.43;1.85;;;20.00;99.90;;;;;;4968155;28;20144;-87
2022/08/06 11:20:37;;;;;;;3.88;1.90;;;20.00;99.90;;;;;;4984417;28;20050;-88
2022/08/06 11:23:11;;;;;;;4.93;1.67;;;20.00;99.90;;;;;;4980281;28;20046;-86
2022/08/06 11:25:39;;;;;;;5.93;1.83;;;20.10;99.90;;;;;;4968860;28;20512;-87
2022/08/06 11:28:07;;;;;;;5.47;1.73;;;20.20;99.90;;;;;;4977813;28;20084;-86
2022/08/06 11:30:49;;;;;;;5.03;2.00;;;20.20;99.90;;;;;;4988240;28;20096;-90
2022/08/06 11:33:20;;;;;;;4.85;1.90;;;20.10;99.90;;;;;;4979394;28;20411;-87
2022/08/06 11:35:50;;;;;;;4.15;1.60;;;20.20;99.90;;;;;;4976476;28;20043;-84
2022/08/06 11:38:51;;;;;;;4.40;1.75;;;20.20;99.90;;;;;;4982475;28;20391;-86
2022/08/06 11:41:28;;;;;;;4.93;1.88;;;20.10;99.90;;;;;;4975534;28;20047;-88
2022/08/06 11:43:53;;;;;;;4.95;1.98;;;20.20;99.90;;;;;;4970521;28;20407;-87
2022/08/06 11:46:22;;;;;;;3.75;1.80;;;20.30;99.90;;;;;;4974456;28;20049;-87
2022/08/06 11:48:59;;;;;;;4.97;1.88;;;20.30;99.90;;;;;;4987124;28;20046;-89
2022/08/06 11:51:44;;;;;;;3.67;1.90;;;20.40;98.40;;;;;;4967243;28;20038;-87
2022/08/06 11:54:35;;;;;;;4.63;2.00;;;20.40;99.30;;;;;;4982504;28;20406;-88
2022/08/06 11:57:01;;;;;;;5.88;1.90;;;20.60;98.80;;;;;;4984080;28;20043;-87
2022/08/06 11:59:56;;;;;;;5.95;2.10;;;20.70;98.50;;;;;;4973156;28;20065;-87
2022/08/06 12:02:42;;;;;;;4.80;1.85;;;20.70;97.80;;;;;;4989156;28;20050;-86
2022/08/06 12:05:27;;;;;;;4.55;1.83;;;20.70;96.00;;;;;;4983498;28;20144;-87
2022/08/06 12:08:18;;;;;;;4.93;1.80;;;20.70;96.80;;;;;;4964752;28;20058;-88
2022/08/06 12:11:22;;;;;;;4.97;2.05;;;20.80;96.40;;;;;;4980805;28;20069;-91
2022/08/06 12:13:48;;;;;;;4.85;1.75;;;20.90;96.20;;;;;;4986643;28;20047;-87
2022/08/06 12:16:28;;;;;;;5.20;2.05;;;20.90;97.00;;;;;;4971787;28;20094;-88
2022/08/06 12:18:54;;;;;;;5.37;1.90;;;20.90;95.80;;;;;;4970688;28;20054;-87
2022/08/06 12:21:22;;;;;;;4.43;1.92;;;20.90;96.40;;;;;;4969836;28;20109;-88
2022/08/06 12:23:50;;;;;;;4.47;1.90;;;20.90;96.10;;;;;;4970836;28;20451;-89
2022/08/06 12:26:16;;;;;;;6.28;2.30;;;20.90;96.10;;;;;;4973931;28;20042;-87
2022/08/06 12:28:42;;;;;;;4.22;1.95;;;20.80;96.30;;;;;;4990751;28;20415;-87
2022/08/06 12:31:07;;;;;;;5.45;2.20;;;20.70;96.80;;;;;;4991389;28;20046;-87
2022/08/06 12:33:41;;;;;;;5.05;2.05;;;20.70;96.70;;;;;;4992340;28;20093;-87
2022/08/06 12:36:07;;;;;;;4.97;2.10;;;20.70;96.90;;;;;;4991216;28;20096;-88
2022/08/06 12:38:33;;;;;;;6.00;2.30;;;20.70;97.20;;;;;;4973251;28;20431;-87
2022/08/06 12:41:01;;;;;;;4.85;2.08;;;20.50;97.20;;;;;;4972443;28;20106;-86
2022/08/06 12:43:29;;;;;;;4.45;1.92;;;20.40;97.50;;;;;;4992254;28;20042;-87
2022/08/06 12:46:06;;;;;;;6.90;2.50;;;20.50;97.70;;;;;;4989747;28;20042;-86
2022/08/06 12:48:34;;;;;;;5.45;2.13;;;20.50;98.40;;;;;;4990561;28;20097;-87
2022/08/06 12:51:04;;;;;;;4.90;2.00;;;20.60;99.20;;;;;;4988362;28;20097;-86
2022/08/06 12:53:30;;;;;;;4.75;2.10;;;20.60;98.10;;;;;;4976093;28;20081;-86
2022/08/06 12:55:56;;;;;;;5.55;2.13;;;20.60;97.50;;;;;;4989650;28;20069;-86
2022/08/06 12:58:32;;;;;;;4.53;2.05;;;20.60;97.50;;;;;;4991918;28;20042;-86
2022/08/06 13:01:00;;;;;;;5.45;2.10;;;20.50;97.60;;;;;;4986754;28;20027;-88
2022/08/06 13:03:27;;;;;;;6.00;2.33;;;20.60;97.50;;;;;;4983978;28;20042;-86
2022/08/06 13:05:54;;;;;;;4.60;2.00;;;20.60;97.70;;;;;;4982095;28;20108;-87